UNEE

Kemerovo Airport

Kemerovo, Russian Federation
TAF UNEE 192300Z 2000/2024 08003MPS CAVOK TEMPO 2000/2003 3100 BR FU BECMG 2004/2005 12006MPS
Issued Valid From Valid To
Sep-19 @ 23:00 UTC
(2 hours ago)
Sep-20 @ 00:00 UTC
(47 minutes ago)
Sep-21 @ 00:00 UTC
(in 23 hours)
Sep-20 @ 00:00 to Sep-20 @ 04:00
TAF UNEE 192300Z 2000/2024 08003MPS CAVOK
Wind Visibility Clouds Conditions
80° at 6 knots 10,000+ meters
  • No significant clouds
Temporary Sep-20 @ 00:00 to Sep-20 @ 03:00
TEMPO 2000/2003 3100 BR FU
Visibility Conditions
3,106 meters
  • Mist
  • Smoke
Becoming Sep-20 @ 04:00 to Sep-21 @ 00:00
BECMG 2004/2005 12006MPS
Wind Visibility Clouds Conditions
120° at 12 knots 10,000+ meters
  • No significant clouds
TAF UNEE 192300Z 2000/2024 08003MPS CAVOK TEMPO 2000/2003 3100 BR FU BECMG 2004/2005 12006MPS
Issued Sep-19 @ 23:00 UTC
(2 hours ago)
Valid From Sep-20 @ 00:00 UTC
(47 minutes ago)
Valid To Sep-21 @ 00:00 UTC
(in 23 hours)
Sep-20 @ 00:00 - Sep-20 @ 04:00
Wind Visibility
80° at 6 knots 10,000+ meters
Clouds
  • No significant clouds
Conditions
Temporary Sep-20 @ 00:00 - Sep-20 @ 03:00
Conditions
  • Mist
  • Smoke
Becoming Sep-20 @ 04:00 - Sep-21 @ 00:00
Wind Visibility
120° at 12 knots 10,000+ meters
Clouds
  • No significant clouds
Conditions